createdAt,value
2023-11-30T00:01:44.800Z,16.19
2023-11-30T00:04:13.297Z,16.20
2023-11-30T00:06:41.708Z,16.18
2023-11-30T00:09:10.009Z,16.20
2023-11-30T00:11:38.328Z,16.19
2023-11-30T00:14:06.560Z,16.16
2023-11-30T00:16:35.094Z,16.10
2023-11-30T00:19:03.668Z,16.06
2023-11-30T00:21:32.272Z,16.07
2023-11-30T00:24:00.645Z,16.08
2023-11-30T00:26:28.995Z,16.06
2023-11-30T00:28:57.571Z,16.07
2023-11-30T00:31:29.531Z,16.08
2023-11-30T00:33:58.076Z,16.10
2023-11-30T00:36:26.398Z,16.11
2023-11-30T00:38:54.665Z,16.09
2023-11-30T00:41:23.116Z,16.06
2023-11-30T00:43:51.413Z,16.04
2023-11-30T00:46:19.821Z,16.02
2023-11-30T00:48:48.401Z,16.01
2023-11-30T00:51:17.281Z,15.99
2023-11-30T00:53:45.509Z,15.98
2023-11-30T00:56:13.995Z,15.98
2023-11-30T00:58:42.230Z,15.99
2023-11-30T01:03:43.772Z,16.03
2023-11-30T01:06:12.259Z,16.01
2023-11-30T01:08:40.965Z,16.00
2023-11-30T01:11:09.759Z,15.95
2023-11-30T01:13:37.913Z,15.92
2023-11-30T01:16:06.727Z,15.91
2023-11-30T01:18:35.094Z,15.92
2023-11-30T01:21:03.843Z,15.93
2023-11-30T01:23:32.125Z,15.92
2023-11-30T01:26:01.398Z,15.90
2023-11-30T01:28:29.769Z,15.90
2023-11-30T01:30:58.171Z,15.89
2023-11-30T01:33:26.609Z,15.88
2023-11-30T01:35:54.888Z,15.88
2023-11-30T01:38:23.304Z,15.88
2023-11-30T01:40:51.491Z,15.92
2023-11-30T01:43:22.251Z,15.94
2023-11-30T01:46:02.331Z,15.97
2023-11-30T01:48:34.145Z,15.99
2023-11-30T01:51:06.051Z,16.03
2023-11-30T01:53:37.084Z,16.07
2023-11-30T01:56:10.561Z,16.10
2023-11-30T01:58:39.106Z,16.12
2023-11-30T02:01:09.055Z,16.15
2023-11-30T02:03:38.579Z,16.15
2023-11-30T02:06:07.876Z,16.16
2023-11-30T02:08:36.250Z,16.17
2023-11-30T02:11:04.709Z,16.18
2023-11-30T02:13:32.948Z,16.20
2023-11-30T02:16:01.475Z,16.24
2023-11-30T02:18:29.781Z,16.28
2023-11-30T02:20:58.305Z,16.33
2023-11-30T02:23:26.584Z,16.35
2023-11-30T02:25:55.066Z,16.36
2023-11-30T02:28:23.199Z,16.37
2023-11-30T02:30:51.598Z,16.35
2023-11-30T02:33:20.151Z,16.33
2023-11-30T02:35:48.459Z,16.28
2023-11-30T02:38:17.193Z,16.23
2023-11-30T02:40:45.482Z,16.19
2023-11-30T02:43:13.755Z,16.15
2023-11-30T02:45:42.077Z,16.12
2023-11-30T02:48:11.112Z,16.09
2023-11-30T02:50:39.993Z,16.06
2023-11-30T02:53:08.183Z,16.05
2023-11-30T02:55:36.745Z,16.05
2023-11-30T02:58:05.019Z,16.05
2023-11-30T03:00:33.365Z,16.06
2023-11-30T03:03:01.794Z,16.08
2023-11-30T03:05:32.278Z,16.08
2023-11-30T03:08:00.518Z,16.08
2023-11-30T03:10:28.856Z,16.08
2023-11-30T03:12:57.889Z,16.10
2023-11-30T03:15:26.167Z,16.12
2023-11-30T03:17:54.728Z,16.13
2023-11-30T03:20:23.243Z,16.16
2023-11-30T03:22:51.592Z,16.19
2023-11-30T03:25:20.127Z,16.20
2023-11-30T03:27:48.418Z,16.20
2023-11-30T03:30:16.822Z,16.20
2023-11-30T03:32:45.694Z,16.18
2023-11-30T03:35:13.995Z,16.18
2023-11-30T03:37:42.307Z,16.17
2023-11-30T03:40:11.673Z,16.16
2023-11-30T03:42:39.959Z,16.14
2023-11-30T03:45:08.916Z,16.14
2023-11-30T03:47:37.617Z,16.14
2023-11-30T03:50:06.156Z,16.13
2023-11-30T03:52:34.995Z,16.13
2023-11-30T03:55:03.560Z,16.13
2023-11-30T03:57:32.206Z,16.14
2023-11-30T04:00:00.683Z,16.15
2023-11-30T04:02:30.002Z,16.14
2023-11-30T04:04:59.538Z,16.14
2023-11-30T04:07:27.790Z,16.15
2023-11-30T04:09:56.201Z,16.16
2023-11-30T04:12:24.645Z,16.16
2023-11-30T04:14:53.013Z,16.15
2023-11-30T04:17:22.239Z,16.15
2023-11-30T04:19:50.821Z,16.14
2023-11-30T04:22:19.047Z,16.14
2023-11-30T04:24:47.776Z,16.12
2023-11-30T04:27:16.198Z,16.11
2023-11-30T04:29:44.501Z,16.09
2023-11-30T04:32:13.003Z,16.07
2023-11-30T04:34:41.237Z,16.05
2023-11-30T04:37:09.441Z,16.02
2023-11-30T04:39:38.035Z,16.00
2023-11-30T04:42:06.534Z,15.99
2023-11-30T04:44:34.731Z,15.97
2023-11-30T04:47:03.046Z,15.96
2023-11-30T04:49:31.272Z,15.96
2023-11-30T04:51:59.831Z,15.96
2023-11-30T04:54:28.439Z,15.95
2023-11-30T04:56:57.645Z,15.93
2023-11-30T04:59:25.873Z,15.91
2023-11-30T05:01:54.403Z,15.88
2023-11-30T05:04:23.563Z,15.86
2023-11-30T05:06:51.809Z,15.85
2023-11-30T05:09:20.068Z,15.84
2023-11-30T05:11:48.377Z,15.85
2023-11-30T05:14:16.551Z,15.84
2023-11-30T05:16:45.480Z,15.83
2023-11-30T05:19:13.666Z,15.81
2023-11-30T05:21:42.080Z,15.80
2023-11-30T05:24:11.979Z,15.79
2023-11-30T05:26:40.481Z,15.78
2023-11-30T05:29:08.815Z,15.77
2023-11-30T05:31:37.163Z,15.75
2023-11-30T05:34:05.444Z,15.73
2023-11-30T05:36:34.273Z,15.68
2023-11-30T05:39:03.149Z,15.66
2023-11-30T05:41:32.133Z,15.65
2023-11-30T05:44:00.596Z,15.63
2023-11-30T05:46:28.955Z,15.60
2023-11-30T05:48:57.252Z,15.57
2023-11-30T05:51:25.543Z,15.56
2023-11-30T05:53:54.208Z,15.56
2023-11-30T05:56:22.917Z,15.56
2023-11-30T05:58:51.075Z,15.58
2023-11-30T06:01:19.409Z,15.61
2023-11-30T06:03:47.940Z,15.65
2023-11-30T06:06:16.480Z,15.69
2023-11-30T06:08:44.726Z,15.70
2023-11-30T06:11:12.864Z,15.71
2023-11-30T06:13:41.197Z,15.69
2023-11-30T06:16:09.724Z,15.68
2023-11-30T06:18:38.326Z,15.63
2023-11-30T06:21:10.770Z,15.60
2023-11-30T06:23:39.199Z,15.59
2023-11-30T06:26:10.512Z,15.56
2023-11-30T06:28:38.852Z,15.51
2023-11-30T06:31:08.488Z,15.47
2023-11-30T06:33:36.876Z,15.44
2023-11-30T06:36:05.784Z,15.43
2023-11-30T06:38:34.304Z,15.41
2023-11-30T06:41:02.665Z,15.37
2023-11-30T06:43:31.011Z,15.32
2023-11-30T06:45:59.265Z,15.29
2023-11-30T06:48:27.681Z,15.29
2023-11-30T06:50:56.166Z,15.30
2023-11-30T06:53:24.667Z,15.32
2023-11-30T06:55:53.386Z,15.34
2023-11-30T06:58:21.567Z,15.37
2023-11-30T07:00:49.843Z,15.38
2023-11-30T07:03:18.409Z,15.40
2023-11-30T07:05:48.429Z,15.41
2023-11-30T07:08:16.834Z,15.40
2023-11-30T07:10:45.232Z,15.41
2023-11-30T07:13:13.629Z,15.43
2023-11-30T07:15:42.250Z,15.46
2023-11-30T07:18:11.736Z,15.50
2023-11-30T07:20:40.059Z,15.52
2023-11-30T07:23:09.480Z,15.56
2023-11-30T07:25:38.589Z,15.62
2023-11-30T07:28:06.659Z,15.69
2023-11-30T07:30:34.980Z,15.77
2023-11-30T07:33:03.448Z,15.85
2023-11-30T07:35:32.216Z,16.16
2023-11-30T07:38:00.530Z,17.01
2023-11-30T07:40:30.005Z,18.44
2023-11-30T07:42:58.578Z,19.52
2023-11-30T07:45:27.387Z,19.89
2023-11-30T07:47:56.132Z,20.29
2023-11-30T07:50:25.003Z,21.31
2023-11-30T07:52:53.361Z,22.66
2023-11-30T07:55:22.992Z,23.97
2023-11-30T07:57:51.319Z,25.10
2023-11-30T08:00:20.110Z,25.83
2023-11-30T08:02:48.544Z,26.53
2023-11-30T08:05:17.897Z,27.06
2023-11-30T08:07:46.194Z,27.53
2023-11-30T08:10:14.365Z,28.16
2023-11-30T08:12:43.502Z,28.81
2023-11-30T08:15:14.396Z,29.16
2023-11-30T08:17:42.810Z,29.26
2023-11-30T08:20:12.295Z,29.22
2023-11-30T08:22:41.792Z,29.19
2023-11-30T08:25:10.180Z,29.38
2023-11-30T08:27:39.293Z,29.45
2023-11-30T08:30:08.141Z,29.43
2023-11-30T08:32:37.516Z,29.91
2023-11-30T08:35:06.717Z,30.53
2023-11-30T08:37:35.059Z,30.94
2023-11-30T08:40:03.552Z,31.62
2023-11-30T08:42:31.944Z,32.44
2023-11-30T08:45:00.471Z,33.05
2023-11-30T08:47:28.684Z,33.30
2023-11-30T08:49:56.989Z,32.55
2023-11-30T08:52:25.462Z,31.43
2023-11-30T08:54:54.293Z,30.57
2023-11-30T08:57:22.740Z,30.47
2023-11-30T08:59:51.345Z,30.58
2023-11-30T09:02:19.713Z,30.53
2023-11-30T09:04:50.242Z,30.08
2023-11-30T09:07:19.684Z,29.67
2023-11-30T09:09:51.248Z,29.43
2023-11-30T09:12:20.144Z,29.39
2023-11-30T09:14:48.313Z,29.84
2023-11-30T09:17:16.731Z,30.32
2023-11-30T09:19:44.948Z,30.85
2023-11-30T09:22:13.299Z,31.29
2023-11-30T09:24:41.647Z,31.43
2023-11-30T09:27:10.278Z,31.78
2023-11-30T09:29:40.713Z,31.90
2023-11-30T09:32:08.998Z,31.73
2023-11-30T09:34:37.766Z,31.67
2023-11-30T09:37:06.832Z,31.89
2023-11-30T09:39:35.071Z,31.87
2023-11-30T09:42:03.774Z,32.04
2023-11-30T09:44:36.410Z,32.02
2023-11-30T09:47:05.019Z,31.56
2023-11-30T09:49:33.156Z,31.03
2023-11-30T09:52:02.738Z,31.02
2023-11-30T09:54:32.508Z,31.02
2023-11-30T09:57:00.931Z,31.37
2023-11-30T09:59:29.902Z,31.65
2023-11-30T10:02:04.523Z,32.09
2023-11-30T10:04:35.166Z,32.30
2023-11-30T10:07:03.687Z,32.41
2023-11-30T10:09:34.392Z,32.18
2023-11-30T10:12:02.944Z,31.85
2023-11-30T10:14:31.359Z,31.65
2023-11-30T10:17:01.181Z,31.74
2023-11-30T10:19:30.219Z,31.98
2023-11-30T10:21:59.812Z,32.35
2023-11-30T10:24:28.777Z,32.72
2023-11-30T10:27:05.795Z,32.99
2023-11-30T10:29:41.534Z,33.19
2023-11-30T10:32:14.776Z,33.27
2023-11-30T10:34:50.861Z,33.40
2023-11-30T10:37:21.119Z,33.56
2023-11-30T10:40:00.805Z,33.47
2023-11-30T10:42:29.799Z,32.88
2023-11-30T10:45:02.718Z,32.32
2023-11-30T10:47:31.517Z,31.97
2023-11-30T10:50:01.454Z,31.55
2023-11-30T10:52:30.730Z,30.99
2023-11-30T10:55:17.169Z,30.51
2023-11-30T10:57:46.492Z,29.95
2023-11-30T11:00:17.030Z,29.38
2023-11-30T11:02:47.279Z,28.94
2023-11-30T11:05:20.185Z,28.58
2023-11-30T11:07:53.279Z,28.24
2023-11-30T11:10:42.063Z,28.14
2023-11-30T11:13:19.086Z,28.31
2023-11-30T11:15:57.851Z,28.54
2023-11-30T11:18:34.414Z,28.95
2023-11-30T11:21:02.869Z,29.02
2023-11-30T11:23:35.383Z,28.80
2023-11-30T11:26:03.950Z,28.50
2023-11-30T11:28:32.898Z,28.45
2023-11-30T11:31:01.801Z,28.51
2023-11-30T11:33:30.946Z,28.51
2023-11-30T11:36:02.321Z,28.24
2023-11-30T11:38:30.928Z,28.15
2023-11-30T11:40:59.700Z,28.11
2023-11-30T11:43:28.317Z,28.21
2023-11-30T11:45:56.645Z,28.12
2023-11-30T11:48:24.959Z,27.81
2023-11-30T11:50:58.385Z,27.61
2023-11-30T11:53:26.573Z,27.77
2023-11-30T11:56:02.911Z,27.55
2023-11-30T11:58:31.381Z,27.10
2023-11-30T12:00:59.734Z,26.67
2023-11-30T12:03:30.141Z,26.24
2023-11-30T12:05:58.568Z,25.87
2023-11-30T12:08:31.955Z,25.45
2023-11-30T12:11:00.228Z,25.05
2023-11-30T12:13:28.849Z,24.63
2023-11-30T12:15:57.458Z,24.32
2023-11-30T12:18:28.693Z,24.05
2023-11-30T12:20:57.192Z,23.78
2023-11-30T12:23:25.438Z,23.42
2023-11-30T12:25:53.897Z,23.17
2023-11-30T12:28:23.136Z,22.85
2023-11-30T12:30:51.519Z,22.55
2023-11-30T12:33:20.103Z,22.34
2023-11-30T12:35:48.753Z,22.11
2023-11-30T12:38:17.161Z,21.83
2023-11-30T12:40:45.700Z,21.72
2023-11-30T12:43:14.343Z,21.69
2023-11-30T12:45:42.686Z,21.59
2023-11-30T12:48:11.092Z,21.54
2023-11-30T12:50:39.905Z,21.45
2023-11-30T12:53:08.437Z,21.32
2023-11-30T12:55:36.878Z,21.32
2023-11-30T12:58:09.540Z,21.38
2023-11-30T13:00:38.454Z,21.51
2023-11-30T13:03:07.167Z,21.59
2023-11-30T13:05:35.602Z,21.45
2023-11-30T13:08:03.956Z,21.42
2023-11-30T13:10:32.749Z,21.40
2023-11-30T13:13:01.576Z,21.49
2023-11-30T13:18:18.308Z,21.76
2023-11-30T13:20:47.276Z,21.95
2023-11-30T13:23:15.722Z,22.17
2023-11-30T13:25:44.327Z,22.28
2023-11-30T13:28:12.759Z,22.40
2023-11-30T13:30:41.232Z,22.58
2023-11-30T13:33:10.016Z,22.98
2023-11-30T13:35:38.433Z,23.29
2023-11-30T13:38:07.360Z,23.52
2023-11-30T13:40:36.253Z,23.55
2023-11-30T13:43:06.077Z,23.44
2023-11-30T13:45:36.617Z,23.23
2023-11-30T13:48:05.109Z,23.11
2023-11-30T13:50:41.977Z,23.10
2023-11-30T13:53:15.569Z,23.10
2023-11-30T13:55:44.360Z,23.00
2023-11-30T13:58:12.547Z,22.88
2023-11-30T14:00:41.165Z,22.82
2023-11-30T14:03:09.529Z,22.69
2023-11-30T14:05:37.760Z,22.47
2023-11-30T14:08:07.498Z,22.25
2023-11-30T14:10:35.758Z,22.06
2023-11-30T14:13:05.792Z,21.82
2023-11-30T14:15:34.382Z,21.67
2023-11-30T14:18:03.641Z,21.63
2023-11-30T14:20:31.972Z,21.63
2023-11-30T14:23:00.271Z,21.75
2023-11-30T14:25:28.736Z,21.87
2023-11-30T14:28:00.965Z,21.94
2023-11-30T14:30:32.044Z,22.03
2023-11-30T14:33:00.836Z,22.10
2023-11-30T14:35:30.643Z,22.10
2023-11-30T14:37:59.298Z,22.01
2023-11-30T14:40:28.088Z,21.84
2023-11-30T14:42:57.233Z,21.68
2023-11-30T14:45:26.476Z,21.57
2023-11-30T14:47:55.146Z,21.44
2023-11-30T14:50:23.875Z,21.31
2023-11-30T14:52:52.230Z,21.16
2023-11-30T14:55:22.701Z,21.05
2023-11-30T14:57:53.815Z,20.95
2023-11-30T15:00:24.212Z,20.88
2023-11-30T15:02:55.578Z,20.80
2023-11-30T15:05:23.960Z,20.86
2023-11-30T15:07:52.047Z,20.94
2023-11-30T15:10:20.462Z,21.04
2023-11-30T15:12:51.311Z,21.07
2023-11-30T15:15:19.930Z,21.04
2023-11-30T15:17:48.575Z,21.03
2023-11-30T15:20:18.293Z,21.10
2023-11-30T15:22:47.951Z,21.19
2023-11-30T15:25:16.225Z,21.26
2023-11-30T15:27:44.578Z,21.25
2023-11-30T15:30:14.480Z,21.22
2023-11-30T15:32:42.791Z,21.14
2023-11-30T15:35:11.570Z,21.01
2023-11-30T15:37:40.018Z,20.83
2023-11-30T15:40:09.906Z,20.72
2023-11-30T15:42:38.649Z,20.66
2023-11-30T15:45:11.544Z,20.59
2023-11-30T15:47:41.911Z,20.52
2023-11-30T15:50:10.686Z,20.47
2023-11-30T15:52:39.108Z,20.41
2023-11-30T15:55:07.907Z,20.34
2023-11-30T15:57:36.440Z,20.28
2023-11-30T16:00:06.236Z,20.21
2023-11-30T16:02:34.900Z,20.13
2023-11-30T16:05:04.074Z,20.03
2023-11-30T16:07:33.088Z,19.95
2023-11-30T16:10:03.877Z,19.87
2023-11-30T16:12:33.403Z,19.79
2023-11-30T16:15:04.657Z,19.74
2023-11-30T16:17:34.599Z,19.72
2023-11-30T16:20:04.360Z,19.68
2023-11-30T16:22:33.213Z,19.64
2023-11-30T16:25:01.855Z,19.57
2023-11-30T16:27:30.291Z,19.51
2023-11-30T16:29:59.583Z,19.43
2023-11-30T16:32:28.008Z,19.33
2023-11-30T16:34:56.282Z,19.26
2023-11-30T16:37:24.648Z,19.18
2023-11-30T16:39:52.952Z,19.11
2023-11-30T16:42:21.962Z,19.05
2023-11-30T16:44:51.303Z,19.00
2023-11-30T16:47:20.113Z,19.00
2023-11-30T16:49:48.429Z,18.98
2023-11-30T16:52:16.977Z,18.95
2023-11-30T16:54:45.231Z,18.90
2023-11-30T16:57:13.438Z,18.90
2023-11-30T16:59:42.198Z,18.91
2023-11-30T17:02:10.488Z,18.92
2023-11-30T17:04:39.144Z,18.92
2023-11-30T17:07:07.729Z,18.92
2023-11-30T17:09:35.989Z,18.92
2023-11-30T17:12:04.589Z,18.91
2023-11-30T17:14:33.010Z,18.92
2023-11-30T17:17:01.263Z,18.93
2023-11-30T17:19:29.532Z,18.94
2023-11-30T17:21:57.727Z,18.95
2023-11-30T17:24:26.060Z,18.94
2023-11-30T17:26:54.391Z,18.92
2023-11-30T17:29:22.783Z,18.92
2023-11-30T17:31:51.018Z,18.94
2023-11-30T17:34:19.754Z,18.94
2023-11-30T17:36:48.721Z,18.93
2023-11-30T17:39:17.371Z,18.93
2023-11-30T17:41:46.130Z,18.91
2023-11-30T17:44:15.065Z,18.90
2023-11-30T17:46:45.432Z,18.89
2023-11-30T17:49:13.557Z,18.86
2023-11-30T17:51:42.462Z,18.88
2023-11-30T17:54:10.784Z,18.89
2023-11-30T17:56:39.073Z,18.91
2023-11-30T17:59:07.395Z,18.89
2023-11-30T18:01:36.710Z,18.86
2023-11-30T18:04:05.117Z,18.84
2023-11-30T18:06:33.552Z,18.84
2023-11-30T18:09:02.411Z,18.80
2023-11-30T18:11:30.915Z,18.75
2023-11-30T18:13:59.422Z,18.72
2023-11-30T18:16:27.796Z,18.71
2023-11-30T18:18:56.714Z,18.66
2023-11-30T18:21:26.465Z,18.64
2023-11-30T18:23:56.925Z,18.62
2023-11-30T18:26:25.238Z,18.62
2023-11-30T18:28:53.724Z,18.64
2023-11-30T18:31:23.007Z,18.62
2023-11-30T18:33:51.832Z,18.58
2023-11-30T18:36:20.269Z,18.57
2023-11-30T18:38:51.393Z,18.55
2023-11-30T18:41:21.353Z,18.55
2023-11-30T18:43:50.793Z,18.54
2023-11-30T18:46:19.542Z,18.53
2023-11-30T18:48:47.924Z,18.54
2023-11-30T18:51:16.218Z,18.54
2023-11-30T18:53:44.471Z,18.54
2023-11-30T18:56:12.908Z,18.54
2023-11-30T18:58:41.735Z,18.55
2023-11-30T19:01:10.136Z,18.52
2023-11-30T19:03:38.713Z,18.52
2023-11-30T19:06:07.886Z,18.50
2023-11-30T19:08:36.232Z,18.51
2023-11-30T19:11:04.879Z,18.50
2023-11-30T19:13:33.917Z,18.50
2023-11-30T19:16:02.490Z,18.46
2023-11-30T19:18:31.358Z,18.45
2023-11-30T19:21:02.435Z,18.43
2023-11-30T19:23:30.948Z,18.40
2023-11-30T19:25:59.616Z,18.40
2023-11-30T19:28:27.954Z,18.40
2023-11-30T19:30:56.263Z,18.37
2023-11-30T19:33:24.794Z,18.35
2023-11-30T19:35:53.245Z,18.35
2023-11-30T19:38:21.622Z,18.35
2023-11-30T19:40:49.976Z,18.35
2023-11-30T19:43:18.773Z,18.36
2023-11-30T19:45:47.286Z,18.37
2023-11-30T19:48:15.760Z,18.37
2023-11-30T19:50:44.117Z,18.38
2023-11-30T19:53:12.339Z,18.37
2023-11-30T19:55:41.353Z,18.36
2023-11-30T19:58:09.905Z,18.33
2023-11-30T20:00:38.138Z,18.31
2023-11-30T20:03:06.555Z,18.31
2023-11-30T20:05:35.408Z,18.30
2023-11-30T20:08:03.699Z,18.29
2023-11-30T20:10:31.936Z,18.30
2023-11-30T20:13:00.303Z,18.29
2023-11-30T20:15:28.496Z,18.28
2023-11-30T20:17:56.941Z,18.26
2023-11-30T20:20:25.596Z,18.26
2023-11-30T20:22:53.861Z,18.27
2023-11-30T20:25:22.583Z,18.28
2023-11-30T20:27:51.575Z,18.27
2023-11-30T20:30:19.821Z,18.26
2023-11-30T20:32:49.331Z,18.26
2023-11-30T20:35:18.063Z,18.27
2023-11-30T20:37:46.480Z,18.28
2023-11-30T20:40:15.060Z,18.28
2023-11-30T20:42:43.222Z,18.28
2023-11-30T20:45:12.249Z,18.29
2023-11-30T20:47:42.021Z,18.28
2023-11-30T20:50:10.503Z,18.25
2023-11-30T20:52:39.176Z,18.22
2023-11-30T20:55:08.162Z,18.15
2023-11-30T20:57:36.450Z,18.11
2023-11-30T21:00:08.202Z,18.09
2023-11-30T21:02:37.200Z,18.09
2023-11-30T21:05:06.077Z,18.09
2023-11-30T21:07:34.395Z,18.09
2023-11-30T21:10:03.399Z,18.08
2023-11-30T21:12:31.744Z,18.08
2023-11-30T21:15:00.509Z,18.08
2023-11-30T21:17:28.680Z,18.07
2023-11-30T21:19:57.032Z,18.06
2023-11-30T21:22:28.682Z,18.03
2023-11-30T21:24:56.985Z,17.99
2023-11-30T21:27:25.888Z,17.96
2023-11-30T21:29:57.380Z,17.95
2023-11-30T21:32:25.883Z,17.96
2023-11-30T21:34:57.165Z,17.96
2023-11-30T21:37:26.000Z,17.96
2023-11-30T21:39:54.267Z,17.95
2023-11-30T21:42:22.715Z,17.95
2023-11-30T21:44:51.492Z,17.95
2023-11-30T21:47:19.678Z,17.95
2023-11-30T21:49:48.836Z,17.91
2023-11-30T21:52:17.399Z,17.88
2023-11-30T21:54:45.742Z,17.86
2023-11-30T21:57:14.444Z,17.83
2023-11-30T21:59:42.790Z,17.81
2023-11-30T22:02:11.242Z,17.82
2023-11-30T22:04:39.590Z,17.82
2023-11-30T22:07:08.102Z,17.81
2023-11-30T22:09:38.353Z,17.80
2023-11-30T22:12:08.009Z,17.79
2023-11-30T22:14:36.150Z,17.78
2023-11-30T22:17:04.723Z,17.78
2023-11-30T22:19:33.672Z,17.78
2023-11-30T22:22:01.925Z,17.78
2023-11-30T22:24:30.082Z,17.78
2023-11-30T22:26:58.691Z,17.77
2023-11-30T22:29:27.222Z,17.77
2023-11-30T22:31:56.283Z,17.76
2023-11-30T22:34:25.102Z,17.76
2023-11-30T22:36:53.789Z,17.75
2023-11-30T22:39:22.228Z,17.73
2023-11-30T22:41:50.939Z,17.71
2023-11-30T22:44:19.680Z,17.70
2023-11-30T22:46:48.398Z,17.70
2023-11-30T22:49:17.169Z,17.69
2023-11-30T22:51:45.742Z,17.68
2023-11-30T22:54:13.965Z,17.66
2023-11-30T22:56:42.422Z,17.66
2023-11-30T22:59:11.337Z,17.64
2023-11-30T23:01:39.767Z,17.63
2023-11-30T23:04:08.377Z,17.63
2023-11-30T23:06:36.846Z,17.62
2023-11-30T23:09:05.015Z,17.57
2023-11-30T23:11:33.424Z,17.52
2023-11-30T23:14:01.713Z,17.49
2023-11-30T23:16:29.936Z,17.46
2023-11-30T23:18:58.622Z,17.43
2023-11-30T23:21:26.882Z,17.39
2023-11-30T23:23:55.104Z,17.35
2023-11-30T23:26:23.714Z,17.33
2023-11-30T23:28:51.989Z,17.30
2023-11-30T23:31:21.474Z,17.30
2023-11-30T23:33:49.800Z,17.30
2023-11-30T23:36:18.229Z,17.30
2023-11-30T23:38:46.548Z,17.29
2023-11-30T23:41:15.051Z,17.29
2023-11-30T23:43:43.258Z,17.27
2023-11-30T23:46:11.702Z,17.26
2023-11-30T23:48:40.072Z,17.25
2023-11-30T23:51:08.623Z,17.25
2023-11-30T23:53:36.899Z,17.23
2023-11-30T23:56:05.696Z,17.20
2023-11-30T23:58:34.034Z,17.16
